Time;durP1;ratioP1;P1;durP2;ratioP2;P2;SDS_P1;SDS_P2;PMS_P1;PMS_P2;Temp;Humidity;BMP_temperature;BMP_pressure;BME280_temperature;BME280_humidity;BME280_pressure;Samples;Min_cycle;Max_cycle;Signal;HPM_P1;HPM_P2
2021/09/11 00:00:43;;;;;;;5.70;5.20;;;17.60;99.90;;;;;;5060601;28;20488;-51
2021/09/11 00:03:11;;;;;;;6.20;5.67;;;17.60;99.90;;;;;;5060558;28;20415;-51
2021/09/11 00:05:38;;;;;;;5.03;4.53;;;17.50;99.90;;;;;;5061055;28;20457;-49
2021/09/11 00:08:06;;;;;;;6.37;5.47;;;17.30;99.90;;;;;;5061621;28;20435;-55
2021/09/11 00:10:34;;;;;;;6.47;5.00;;;17.30;99.90;;;;;;5060265;28;20528;-51
2021/09/11 00:13:01;;;;;;;5.80;5.30;;;17.30;99.90;;;;;;5060312;28;20489;-52
2021/09/11 00:15:31;;;;;;;4.37;3.97;;;17.40;99.90;;;;;;5060746;28;20496;-50
2021/09/11 00:18:04;;;;;;;7.67;5.60;;;17.50;99.90;;;;;;5060750;28;20459;-49
2021/09/11 00:20:32;;;;;;;5.47;5.07;;;17.50;99.90;;;;;;5060174;28;20463;-50
2021/09/11 00:23:01;;;;;;;5.50;5.10;;;17.50;99.90;;;;;;5060488;28;20500;-52
2021/09/11 00:25:28;;;;;;;5.40;4.90;;;17.50;99.90;;;;;;5060405;28;20491;-50
2021/09/11 00:27:56;;;;;;;6.70;5.10;;;17.50;99.90;;;;;;5060336;28;20502;-50
2021/09/11 00:30:23;;;;;;;5.87;5.40;;;17.60;99.90;;;;;;5060565;28;20451;-52
2021/09/11 00:32:50;;;;;;;5.80;5.40;;;17.60;99.90;;;;;;5060530;28;20421;-49
2021/09/11 00:35:19;;;;;;;11.57;5.30;;;17.60;99.90;;;;;;5060314;28;20410;-55
2021/09/11 00:37:47;;;;;;;5.60;5.10;;;17.60;99.90;;;;;;5060191;28;20449;-49
2021/09/11 00:40:16;;;;;;;5.97;5.37;;;17.50;99.90;;;;;;5059902;28;20429;-54
2021/09/11 00:42:47;;;;;;;6.53;5.93;;;17.40;99.90;;;;;;5056426;28;20490;-49
2021/09/11 00:45:17;;;;;;;5.60;5.10;;;17.40;99.90;;;;;;5060168;28;20484;-52
2021/09/11 00:47:45;;;;;;;5.23;4.67;;;17.40;99.90;;;;;;5060433;28;20436;-48
2021/09/11 00:50:14;;;;;;;4.87;4.47;;;17.40;99.90;;;;;;5059998;28;20420;-52
2021/09/11 00:52:42;;;;;;;6.50;5.27;;;17.30;99.90;;;;;;5059583;28;20453;-52
2021/09/11 00:55:12;;;;;;;5.27;4.83;;;17.20;99.90;;;;;;5054360;28;20422;-51
2021/09/11 00:57:44;;;;;;;6.70;5.43;;;17.20;99.90;;;;;;5054120;28;20461;-49
2021/09/11 01:00:13;;;;;;;5.30;4.90;;;17.10;99.90;;;;;;5058645;28;20605;-51
2021/09/11 01:02:40;;;;;;;5.00;4.60;;;17.20;99.90;;;;;;5054654;28;20412;-51
2021/09/11 01:05:09;;;;;;;4.90;4.50;;;17.30;99.90;;;;;;5059601;28;20670;-51
2021/09/11 01:07:38;;;;;;;6.00;4.93;;;17.20;99.90;;;;;;5058900;28;20410;-53
2021/09/11 01:10:07;;;;;;;5.43;5.03;;;17.10;99.90;;;;;;5058918;28;20495;-51
2021/09/11 01:12:34;;;;;;;4.87;4.57;;;17.10;99.90;;;;;;5035662;28;20502;-54
2021/09/11 01:15:07;;;;;;;10.70;4.50;;;16.90;99.90;;;;;;5060010;28;20439;-51
2021/09/11 01:17:35;;;;;;;5.13;4.63;;;16.90;99.90;;;;;;5058241;28;20578;-49
2021/09/11 01:20:03;;;;;;;5.33;4.90;;;16.80;99.90;;;;;;5059163;28;20418;-55
2021/09/11 01:22:30;;;;;;;5.47;5.03;;;16.80;99.90;;;;;;5059232;28;20437;-52
2021/09/11 01:25:00;;;;;;;5.50;5.00;;;16.90;99.90;;;;;;5059308;28;20447;-49
2021/09/11 01:27:28;;;;;;;5.37;4.90;;;17.00;99.90;;;;;;5058561;28;20463;-49
2021/09/11 01:29:58;;;;;;;8.70;5.80;;;17.00;99.90;;;;;;5059707;28;20507;-49
2021/09/11 01:32:28;;;;;;;6.27;5.77;;;17.00;99.90;;;;;;5058848;28;20502;-52
2021/09/11 01:34:56;;;;;;;6.30;5.00;;;17.10;99.90;;;;;;5059543;28;20627;-51
2021/09/11 01:37:23;;;;;;;5.30;4.70;;;17.00;99.90;;;;;;5057789;28;20448;-54
2021/09/11 01:39:51;;;;;;;4.83;4.43;;;17.00;99.90;;;;;;5058486;28;20678;-48
2021/09/11 01:42:20;;;;;;;4.90;4.50;;;17.00;99.90;;;;;;5059179;28;20452;-49
2021/09/11 01:44:52;;;;;;;4.93;4.53;;;17.00;99.90;;;;;;5059432;28;20478;-49
2021/09/11 01:47:19;;;;;;;5.73;5.00;;;17.00;99.90;;;;;;5059290;28;20406;-52
2021/09/11 01:49:47;;;;;;;4.90;4.60;;;17.10;99.90;;;;;;5058739;28;20804;-54
2021/09/11 01:52:14;;;;;;;7.30;5.00;;;17.00;99.90;;;;;;5062661;28;20467;-53
2021/09/11 01:54:42;;;;;;;4.80;4.40;;;17.00;99.90;;;;;;5059825;28;20403;-52
2021/09/11 01:57:10;;;;;;;5.07;4.67;;;17.00;99.90;;;;;;5062158;28;20418;-53
2021/09/11 01:59:39;;;;;;;5.77;5.00;;;17.00;99.90;;;;;;5059340;28;20439;-50
2021/09/11 02:02:07;;;;;;;4.70;4.40;;;17.00;99.90;;;;;;5058865;28;20442;-51
2021/09/11 02:04:36;;;;;;;4.57;4.27;;;17.10;99.90;;;;;;5058187;28;20454;-55
2021/09/11 02:07:04;;;;;;;4.60;4.20;;;17.00;99.90;;;;;;5053437;28;20433;-51
2021/09/11 02:09:34;;;;;;;4.90;4.50;;;17.10;99.90;;;;;;5050709;28;20497;-50
2021/09/11 02:12:02;;;;;;;4.63;4.23;;;17.20;99.90;;;;;;5058030;28;20457;-51
2021/09/11 02:14:29;;;;;;;6.47;5.00;;;17.20;99.90;;;;;;5058295;28;20473;-51
2021/09/11 02:16:56;;;;;;;4.30;3.90;;;17.20;99.90;;;;;;5058739;28;20508;-49
2021/09/11 02:19:24;;;;;;;5.80;3.90;;;17.30;99.90;;;;;;5058449;28;20502;-52
2021/09/11 02:21:51;;;;;;;5.13;4.63;;;17.30;99.90;;;;;;5058449;28;20513;-54
2021/09/11 02:24:19;;;;;;;5.17;4.53;;;17.10;99.90;;;;;;5058015;28;20438;-54
2021/09/11 02:26:46;;;;;;;3.80;3.50;;;16.90;99.90;;;;;;5057684;28;20507;-50
2021/09/11 02:29:13;;;;;;;4.47;4.17;;;16.90;99.90;;;;;;5058209;28;20443;-52
2021/09/11 02:31:40;;;;;;;4.37;4.07;;;17.00;99.90;;;;;;5057756;28;20483;-50
2021/09/11 02:34:07;;;;;;;4.40;3.70;;;17.00;99.90;;;;;;5057747;28;20405;-52
2021/09/11 02:36:35;;;;;;;4.43;4.03;;;17.10;99.90;;;;;;5058225;28;20452;-55
2021/09/11 02:39:02;;;;;;;4.53;4.13;;;17.20;99.90;;;;;;5057947;28;20475;-48
2021/09/11 02:41:29;;;;;;;4.77;3.80;;;17.20;99.90;;;;;;5057664;28;20755;-50
2021/09/11 02:44:02;;;;;;;5.10;4.60;;;17.00;99.90;;;;;;5057981;28;20574;-49
2021/09/11 02:46:30;;;;;;;4.43;4.10;;;17.00;99.90;;;;;;5057621;28;20512;-53
2021/09/11 02:49:01;;;;;;;4.73;4.33;;;16.80;99.90;;;;;;5057387;28;20474;-51
2021/09/11 02:51:29;;;;;;;5.03;4.53;;;16.60;99.90;;;;;;5057362;28;20472;-50
2021/09/11 02:53:56;;;;;;;4.67;4.37;;;16.60;99.90;;;;;;5057619;28;20409;-55
2021/09/11 02:56:24;;;;;;;6.50;4.20;;;16.30;99.90;;;;;;5057383;28;20439;-49
2021/09/11 02:58:51;;;;;;;5.20;3.87;;;16.40;99.90;;;;;;5057877;28;20439;-50
2021/09/11 03:01:19;;;;;;;5.03;4.63;;;16.40;99.90;;;;;;5054291;28;20459;-53
2021/09/11 03:03:46;;;;;;;5.03;4.63;;;16.50;99.90;;;;;;5057876;28;20439;-48
2021/09/11 03:06:13;;;;;;;5.50;5.10;;;16.30;99.90;;;;;;5057036;28;20798;-50
2021/09/11 03:08:40;;;;;;;6.03;4.80;;;16.00;99.90;;;;;;5057694;28;20438;-51
2021/09/11 03:11:08;;;;;;;5.07;4.57;;;16.10;99.90;;;;;;5057222;28;20479;-51
2021/09/11 03:13:35;;;;;;;4.47;4.17;;;16.10;99.90;;;;;;5057298;28;20442;-54
2021/09/11 03:16:02;;;;;;;4.87;4.47;;;16.10;99.90;;;;;;5057508;28;20468;-54
2021/09/11 03:18:30;;;;;;;5.30;4.90;;;16.00;99.90;;;;;;5051578;28;20509;-52
2021/09/11 03:20:57;;;;;;;5.33;4.83;;;16.00;99.90;;;;;;5057731;28;20463;-53
2021/09/11 03:23:24;;;;;;;5.47;4.77;;;16.10;99.90;;;;;;5057084;28;20493;-50
2021/09/11 03:25:51;;;;;;;5.50;4.97;;;16.00;99.90;;;;;;5057680;28;20499;-46
2021/09/11 03:28:18;;;;;;;12.40;4.67;;;16.00;99.90;;;;;;5056879;28;20420;-50
2021/09/11 03:30:46;;;;;;;6.10;5.60;;;16.10;99.90;;;;;;5052464;28;20441;-52
2021/09/11 03:33:13;;;;;;;5.20;4.30;;;16.10;99.90;;;;;;5060634;28;20603;-51
2021/09/11 03:35:44;;;;;;;5.53;5.13;;;16.00;99.90;;;;;;5053362;28;20752;-50
2021/09/11 03:38:11;;;;;;;6.33;5.60;;;15.90;99.90;;;;;;5059141;28;20443;-53
2021/09/11 03:40:38;;;;;;;4.43;4.13;;;15.90;99.90;;;;;;5057327;28;20473;-49
2021/09/11 03:43:05;;;;;;;5.30;4.80;;;16.00;99.90;;;;;;5060428;28;20440;-55
2021/09/11 03:45:33;;;;;;;5.07;4.53;;;16.10;99.90;;;;;;5060655;28;20815;-51
2021/09/11 03:48:00;;;;;;;5.97;5.57;;;16.00;99.90;;;;;;5056020;28;20477;-52
2021/09/11 03:50:28;;;;;;;5.17;4.70;;;16.00;99.90;;;;;;5060651;28;20479;-47
2021/09/11 03:52:55;;;;;;;5.37;4.90;;;16.00;99.90;;;;;;5053651;28;20469;-54
2021/09/11 03:55:22;;;;;;;4.90;4.43;;;16.00;99.90;;;;;;5060621;28;20598;-52
2021/09/11 03:57:49;;;;;;;6.30;5.70;;;16.10;99.90;;;;;;5061051;28;20480;-51
2021/09/11 04:00:16;;;;;;;5.67;4.40;;;16.10;99.90;;;;;;5059393;28;20464;-54
2021/09/11 04:02:44;;;;;;;5.87;5.30;;;16.20;99.90;;;;;;5059630;28;20456;-52
2021/09/11 04:05:11;;;;;;;5.00;4.60;;;16.20;99.90;;;;;;5061038;28;20409;-57
2021/09/11 04:07:38;;;;;;;5.03;4.63;;;16.20;99.90;;;;;;5058104;28;20205;-54
2021/09/11 04:10:06;;;;;;;5.80;5.40;;;16.10;99.90;;;;;;5060841;28;20496;-53
2021/09/11 04:12:33;;;;;;;6.05;5.65;;;15.90;99.90;;;;;;5061213;28;20430;-53
2021/09/11 04:15:00;;;;;;;8.10;5.67;;;15.80;99.90;;;;;;5060484;28;20258;-49
2021/09/11 04:17:27;;;;;;;5.13;4.60;;;15.90;99.90;;;;;;5060697;28;20585;-53
2021/09/11 04:19:54;;;;;;;6.17;5.67;;;16.00;99.90;;;;;;5060574;28;20270;-48
2021/09/11 04:22:22;;;;;;;5.30;4.90;;;16.10;99.90;;;;;;5060912;28;20435;-53
2021/09/11 04:24:49;;;;;;;6.60;5.03;;;16.00;99.90;;;;;;5060252;28;20594;-49
2021/09/11 04:27:16;;;;;;;4.88;4.57;;;16.00;99.90;;;;;;5060407;28;20853;-55
2021/09/11 04:29:43;;;;;;;5.97;5.47;;;15.80;99.90;;;;;;5060342;28;20199;-48
2021/09/11 04:32:10;;;;;;;5.60;5.10;;;15.90;99.90;;;;;;5059730;28;20455;-50
2021/09/11 04:34:37;;;;;;;5.27;4.70;;;15.80;99.90;;;;;;5060444;28;20673;-50
2021/09/11 04:37:04;;;;;;;5.43;4.93;;;15.70;99.90;;;;;;5060439;28;20740;-50
2021/09/11 04:39:31;;;;;;;7.68;5.82;;;15.80;99.90;;;;;;5058485;28;20204;-51
2021/09/11 04:41:58;;;;;;;7.88;7.07;;;15.70;99.90;;;;;;5056073;28;20267;-54
2021/09/11 04:44:28;;;;;;;6.23;5.73;;;15.80;99.90;;;;;;5059290;28;20255;-52
2021/09/11 04:46:55;;;;;;;5.70;5.20;;;15.80;99.90;;;;;;5059800;28;20520;-48
2021/09/11 04:49:22;;;;;;;6.05;5.55;;;15.60;99.90;;;;;;5059811;28;20413;-51
2021/09/11 04:51:49;;;;;;;6.10;5.50;;;15.60;99.90;;;;;;5059920;28;20224;-52
2021/09/11 04:54:16;;;;;;;7.00;6.30;;;15.50;99.90;;;;;;5059702;28;20552;-52
2021/09/11 04:56:43;;;;;;;6.23;5.53;;;15.60;99.90;;;;;;5058738;28;20472;-49
2021/09/11 04:59:10;;;;;;;5.37;4.83;;;15.50;99.90;;;;;;5058595;28;20481;-52
2021/09/11 05:01:37;;;;;;;6.18;5.63;;;15.70;99.90;;;;;;5059964;28;20461;-51
2021/09/11 05:04:05;;;;;;;5.80;5.30;;;15.90;99.90;;;;;;5059506;28;20197;-53
2021/09/11 05:06:32;;;;;;;5.97;4.67;;;15.90;99.90;;;;;;5059200;28;20224;-53
2021/09/11 05:08:59;;;;;;;8.17;5.47;;;16.10;99.90;;;;;;5059707;28;20454;-49
2021/09/11 05:11:26;;;;;;;5.30;4.93;;;16.10;99.90;;;;;;5058542;28;20616;-51
2021/09/11 05:13:54;;;;;;;5.50;5.07;;;16.30;99.90;;;;;;5059122;28;20438;-53
2021/09/11 05:16:21;;;;;;;7.33;6.00;;;16.50;99.90;;;;;;5053360;28;20941;-51
2021/09/11 05:18:48;;;;;;;6.67;5.20;;;16.60;99.90;;;;;;5059195;28;20455;-50
2021/09/11 05:21:15;;;;;;;6.50;5.90;;;16.70;99.90;;;;;;5058996;28;20496;-51
2021/09/11 05:23:42;;;;;;;11.50;8.50;;;16.80;99.90;;;;;;5050868;28;20444;-47
2021/09/11 05:26:09;;;;;;;9.20;5.00;;;16.90;99.90;;;;;;5058337;28;20498;-52
2021/09/11 05:28:37;;;;;;;5.87;5.33;;;17.00;99.90;;;;;;5059062;28;20400;-52
2021/09/11 05:31:04;;;;;;;6.43;5.17;;;17.20;99.90;;;;;;5058894;28;20637;-52
2021/09/11 05:33:31;;;;;;;6.10;5.50;;;17.20;99.90;;;;;;5058879;28;20415;-51
2021/09/11 05:35:58;;;;;;;5.20;4.70;;;17.50;99.90;;;;;;5059195;28;20436;-51
2021/09/11 05:38:26;;;;;;;6.57;6.07;;;17.70;99.90;;;;;;5058445;28;20440;-55
2021/09/11 05:40:53;;;;;;;8.00;5.97;;;17.70;99.90;;;;;;5059267;28;20459;-56
2021/09/11 05:43:20;;;;;;;6.10;5.60;;;17.80;99.90;;;;;;5058563;28;20429;-52
2021/09/11 05:45:47;;;;;;;6.80;6.20;;;18.00;99.90;;;;;;5052078;28;20436;-54
2021/09/11 05:48:15;;;;;;;6.30;5.80;;;18.20;99.90;;;;;;5058969;28;20403;-52
2021/09/11 05:50:42;;;;;;;6.13;5.70;;;18.40;99.90;;;;;;5050475;28;20499;-50
2021/09/11 05:53:10;;;;;;;6.77;6.17;;;18.70;99.90;;;;;;5054835;28;20767;-54
2021/09/11 05:55:37;;;;;;;7.33;6.73;;;18.90;99.90;;;;;;5059329;28;20411;-51
2021/09/11 05:58:04;;;;;;;8.60;8.10;;;19.20;99.90;;;;;;5058955;28;20433;-52
2021/09/11 06:00:31;;;;;;;8.77;6.80;;;19.80;99.90;;;;;;5059966;28;20435;-57
2021/09/11 06:02:59;;;;;;;7.13;6.53;;;20.80;99.90;;;;;;5055456;28;20413;-54
2021/09/11 06:05:26;;;;;;;7.20;6.60;;;21.70;99.90;;;;;;5060105;28;20456;-52
2021/09/11 06:07:53;;;;;;;6.33;5.90;;;22.70;99.90;;;;;;5059625;28;20662;-54
2021/09/11 06:10:20;;;;;;;7.00;6.40;;;23.20;98.90;;;;;;5048185;28;20456;-49
2021/09/11 06:12:47;;;;;;;7.50;7.00;;;23.80;97.60;;;;;;5057495;28;20770;-56
2021/09/11 06:15:15;;;;;;;7.33;6.83;;;24.60;95.60;;;;;;5059353;28;20435;-54
2021/09/11 06:17:42;;;;;;;9.00;7.17;;;25.00;94.80;;;;;;5059127;28;20411;-52
2021/09/11 06:20:10;;;;;;;8.00;7.40;;;25.50;92.70;;;;;;5058017;28;20787;-52
2021/09/11 06:22:37;;;;;;;10.77;9.77;;;26.20;91.90;;;;;;5050205;28;20447;-53
2021/09/11 06:25:04;;;;;;;9.90;8.93;;;26.90;91.20;;;;;;5055652;28;20530;-52
2021/09/11 06:27:32;;;;;;;7.87;7.37;;;27.60;89.00;;;;;;5056575;28;20725;-48
2021/09/11 06:30:00;;;;;;;8.30;7.70;;;28.00;84.50;;;;;;5054834;28;20446;-53
2021/09/11 06:32:27;;;;;;;8.40;7.90;;;28.40;82.30;;;;;;5044938;28;20616;-56
2021/09/11 06:34:54;;;;;;;8.10;7.60;;;28.80;81.00;;;;;;5049404;28;20646;-48
2021/09/11 06:37:21;;;;;;;9.70;9.00;;;29.50;78.90;;;;;;5043110;28;20448;-53
2021/09/11 06:39:49;;;;;;;9.03;8.40;;;30.00;77.10;;;;;;5050377;28;20436;-51
2021/09/11 06:42:19;;;;;;;9.47;8.87;;;30.60;75.20;;;;;;5058151;28;20457;-53
2021/09/11 06:44:47;;;;;;;10.20;9.60;;;31.40;72.10;;;;;;5052511;28;20455;-55
2021/09/11 06:47:14;;;;;;;10.23;9.53;;;32.60;71.00;;;;;;5045974;28;20473;-52
2021/09/11 06:49:42;;;;;;;11.47;10.77;;;32.40;69.00;;;;;;5051330;28;20539;-54
2021/09/11 06:52:10;;;;;;;10.43;9.93;;;33.50;66.20;;;;;;5043888;28;20523;-52
2021/09/11 06:54:37;;;;;;;10.27;9.57;;;34.20;63.00;;;;;;5042121;28;20732;-52
2021/09/11 06:57:05;;;;;;;11.40;10.50;;;33.30;63.40;;;;;;5043509;28;20441;-51
2021/09/11 06:59:32;;;;;;;10.00;9.50;;;33.50;62.80;;;;;;5046960;28;20629;-47
2021/09/11 07:01:59;;;;;;;9.20;8.60;;;33.50;63.60;;;;;;5043589;28;20473;-51
2021/09/11 07:04:27;;;;;;;13.17;12.20;;;34.10;62.10;;;;;;5058315;28;20514;-51
2021/09/11 07:06:54;;;;;;;9.53;9.03;;;35.00;61.10;;;;;;5057610;28;20884;-55
2021/09/11 07:09:21;;;;;;;9.60;9.20;;;35.70;57.90;;;;;;5064352;28;20498;-52
2021/09/11 07:11:48;;;;;;;11.27;10.27;;;36.40;56.60;;;;;;5062146;28;20530;-52
2021/09/11 07:14:16;;;;;;;9.57;8.97;;;36.90;55.80;;;;;;5059284;28;20429;-54
2021/09/11 07:16:43;;;;;;;10.63;10.03;;;37.50;55.60;;;;;;5057237;28;20498;-53
2021/09/11 07:19:11;;;;;;;9.80;9.30;;;38.00;54.00;;;;;;5058615;28;20437;-51
2021/09/11 07:21:38;;;;;;;10.10;9.43;;;38.50;52.50;;;;;;5057308;28;20452;-54
2021/09/11 07:24:05;;;;;;;10.30;9.80;;;39.30;51.80;;;;;;5048356;28;20500;-47
2021/09/11 07:26:33;;;;;;;11.33;10.73;;;39.80;49.30;;;;;;5050508;28;20487;-54
2021/09/11 07:29:00;;;;;;;10.53;10.03;;;39.40;49.70;;;;;;5057889;28;20506;-51
2021/09/11 07:31:27;;;;;;;9.93;9.43;;;39.60;48.80;;;;;;5043409;28;20476;-53
2021/09/11 07:33:54;;;;;;;9.27;8.77;;;39.50;47.60;;;;;;5054190;28;20453;-54
2021/09/11 07:36:21;;;;;;;11.20;10.60;;;39.20;47.70;;;;;;5058255;28;20448;-54
2021/09/11 07:38:49;;;;;;;11.10;10.60;;;38.60;49.00;;;;;;5057936;28;20441;-53
2021/09/11 07:41:17;;;;;;;10.00;9.40;;;38.20;49.40;;;;;;5057905;28;20456;-54
2021/09/11 07:43:44;;;;;;;11.43;10.70;;;38.10;49.80;;;;;;5057394;28;20451;-58
2021/09/11 07:46:11;;;;;;;12.27;11.60;;;37.50;50.40;;;;;;5057635;28;20429;-55
2021/09/11 07:48:39;;;;;;;10.20;9.57;;;38.70;49.80;;;;;;5057837;28;20483;-51
2021/09/11 07:51:06;;;;;;;9.83;9.27;;;39.40;48.60;;;;;;5054773;28;20562;-52
2021/09/11 07:53:33;;;;;;;9.83;9.33;;;39.20;48.20;;;;;;5054559;28;20735;-55
2021/09/11 07:56:02;;;;;;;10.63;10.03;;;39.50;48.20;;;;;;5057903;28;20433;-56
2021/09/11 07:58:29;;;;;;;10.00;9.50;;;40.20;46.50;;;;;;5053323;28;20681;-53
2021/09/11 08:00:56;;;;;;;11.20;10.60;;;39.80;47.00;;;;;;5046864;28;20495;-53
2021/09/11 08:03:23;;;;;;;10.37;9.77;;;40.60;45.70;;;;;;5046167;28;20437;-53
2021/09/11 08:05:51;;;;;;;11.30;10.73;;;41.00;45.10;;;;;;5045604;28;20439;-54
2021/09/11 08:08:18;;;;;;;9.70;9.30;;;41.00;45.20;;;;;;5047224;28;20467;-57
2021/09/11 08:10:45;;;;;;;9.97;9.43;;;40.70;44.80;;;;;;5044708;28;20457;-54
2021/09/11 08:13:15;;;;;;;10.03;9.43;;;40.40;45.30;;;;;;5042112;28;20441;-54
2021/09/11 08:15:43;;;;;;;10.20;9.57;;;39.70;45.10;;;;;;5048468;28;20510;-57
2021/09/11 08:18:11;;;;;;;10.50;9.90;;;39.90;45.50;;;;;;5052272;28;20555;-57
2021/09/11 08:20:38;;;;;;;9.23;8.83;;;40.20;45.40;;;;;;5043363;28;20462;-55
2021/09/11 08:23:06;;;;;;;9.50;9.00;;;40.50;45.20;;;;;;5043770;28;20472;-57
2021/09/11 08:25:33;;;;;;;9.93;9.40;;;40.30;45.40;;;;;;5055760;28;20443;-55
2021/09/11 08:28:01;;;;;;;11.13;10.60;;;40.80;45.10;;;;;;5060933;28;20437;-55
2021/09/11 08:30:28;;;;;;;10.87;10.37;;;41.40;44.60;;;;;;5046157;28;20465;-55
2021/09/11 08:32:55;;;;;;;10.73;10.23;;;42.20;43.80;;;;;;5045725;28;20475;-53
2021/09/11 08:35:22;;;;;;;10.30;9.73;;;41.00;44.80;;;;;;5056561;28;20441;-57
2021/09/11 08:37:49;;;;;;;11.13;10.40;;;41.10;44.80;;;;;;5049681;28;20481;-52
2021/09/11 08:40:18;;;;;;;10.17;9.70;;;40.50;44.80;;;;;;5048821;28;20605;-51
2021/09/11 08:42:46;;;;;;;9.27;8.87;;;40.40;45.40;;;;;;5056023;28;20441;-53
2021/09/11 08:45:14;;;;;;;10.03;9.53;;;40.10;45.70;;;;;;5060406;28;20452;-47
2021/09/11 08:47:44;;;;;;;10.00;9.40;;;40.50;44.90;;;;;;5060198;28;20441;-55
2021/09/11 08:50:13;;;;;;;10.50;10.00;;;40.00;45.10;;;;;;5060201;28;20478;-54
2021/09/11 08:52:43;;;;;;;9.37;8.97;;;39.50;45.90;;;;;;5047449;28;20498;-56
2021/09/11 08:55:11;;;;;;;9.63;9.07;;;38.60;47.50;;;;;;5045240;28;20509;-51
2021/09/11 08:57:38;;;;;;;10.67;9.87;;;38.10;48.10;;;;;;5047889;28;20519;-53
2021/09/11 09:00:07;;;;;;;12.07;11.40;;;38.50;48.00;;;;;;5046715;28;20503;-49
2021/09/11 09:02:35;;;;;;;9.90;9.40;;;38.70;48.20;;;;;;5034830;28;21900;-53
2021/09/11 09:05:04;;;;;;;10.07;9.67;;;37.70;48.90;;;;;;5041812;28;20444;-51
2021/09/11 09:07:43;;;;;;;10.90;9.50;;;36.80;50.80;;;;;;5040408;28;20449;-53
2021/09/11 09:10:16;;;;;;;10.17;9.57;;;36.90;51.10;;;;;;5059169;28;20471;-53
2021/09/11 09:12:46;;;;;;;9.67;9.17;;;35.90;53.10;;;;;;5060062;28;20451;-55
2021/09/11 09:15:19;;;;;;;9.90;9.30;;;35.70;53.90;;;;;;5061318;28;20440;-52
2021/09/11 09:17:49;;;;;;;9.47;8.93;;;35.40;54.80;;;;;;5060395;28;20846;-53
2021/09/11 09:20:26;;;;;;;10.80;9.77;;;34.10;57.10;;;;;;5056561;28;20787;-52
2021/09/11 09:22:59;;;;;;;10.53;9.63;;;33.10;58.70;;;;;;5045435;28;20428;-53
2021/09/11 09:25:35;;;;;;;10.53;9.93;;;32.40;59.80;;;;;;5041247;28;20488;-53
2021/09/11 09:28:07;;;;;;;9.30;8.80;;;31.90;60.40;;;;;;5043683;28;20445;-54
2021/09/11 09:30:37;;;;;;;9.80;9.30;;;32.00;62.50;;;;;;5046941;28;20464;-57
2021/09/11 09:33:06;;;;;;;9.33;8.83;;;32.10;61.40;;;;;;5057454;28;20508;-54
2021/09/11 09:35:34;;;;;;;9.53;8.93;;;32.00;62.50;;;;;;5049287;28;20613;-54
2021/09/11 09:38:09;;;;;;;10.70;10.10;;;31.80;63.70;;;;;;5044168;28;20828;-52
2021/09/11 09:40:47;;;;;;;11.60;10.83;;;31.20;65.80;;;;;;5046658;28;20739;-54
2021/09/11 09:43:31;;;;;;;10.57;9.87;;;30.00;69.30;;;;;;5029039;28;20452;-51
2021/09/11 09:46:04;;;;;;;9.30;8.70;;;29.20;73.20;;;;;;5057514;28;20646;-54
2021/09/11 09:48:36;;;;;;;10.80;10.07;;;28.80;73.90;;;;;;5059367;28;20443;-54
2021/09/11 09:51:08;;;;;;;10.90;9.97;;;28.50;75.20;;;;;;5058985;28;20449;-55
2021/09/11 09:53:37;;;;;;;10.50;9.90;;;28.30;76.70;;;;;;5059516;28;20450;-53
2021/09/11 09:56:04;;;;;;;9.97;9.47;;;28.10;77.60;;;;;;5059529;28;20445;-55
2021/09/11 09:58:33;;;;;;;10.37;9.70;;;28.00;77.20;;;;;;5049919;28;20524;-54
2021/09/11 10:01:00;;;;;;;9.63;9.03;;;27.80;78.90;;;;;;5056728;28;20481;-54
2021/09/11 10:03:29;;;;;;;10.40;9.67;;;27.80;79.10;;;;;;5057732;28;20809;-52
2021/09/11 10:06:03;;;;;;;10.37;9.77;;;27.70;80.30;;;;;;5042566;28;20465;-52
2021/09/11 10:08:34;;;;;;;11.27;10.20;;;27.80;80.20;;;;;;5059433;28;20754;-50
2021/09/11 10:11:09;;;;;;;10.50;9.97;;;27.80;80.70;;;;;;5058442;28;20864;-55
2021/09/11 10:13:38;;;;;;;10.40;9.80;;;27.70;80.50;;;;;;5050521;28;20438;-54
2021/09/11 10:16:09;;;;;;;10.87;10.17;;;27.50;81.20;;;;;;5058143;28;20476;-44
2021/09/11 10:18:38;;;;;;;10.00;9.33;;;27.40;82.50;;;;;;5058275;28;20460;-52
2021/09/11 10:21:35;;;;;;;11.13;10.33;;;27.30;82.90;;;;;;5054672;28;20499;-54
2021/09/11 10:24:01;;;;;;;9.97;9.27;;;27.30;83.30;;;;;;5044400;28;20437;-54
2021/09/11 10:26:51;;;;;;;10.13;9.57;;;27.50;83.70;;;;;;5048039;28;20738;-55
2021/09/11 10:29:33;;;;;;;10.73;10.03;;;27.60;83.00;;;;;;5058343;28;20484;-52
2021/09/11 10:32:20;;;;;;;11.23;10.50;;;27.60;82.70;;;;;;5058620;28;20527;-52
2021/09/11 10:35:04;;;;;;;9.70;9.20;;;27.60;83.70;;;;;;5058268;28;20631;-54
2021/09/11 10:37:37;;;;;;;10.10;9.50;;;27.30;83.30;;;;;;5043730;28;20942;-53
2021/09/11 10:40:35;;;;;;;10.60;9.70;;;27.20;84.30;;;;;;5043439;28;20434;-54
2021/09/11 10:43:09;;;;;;;10.10;9.40;;;27.30;84.40;;;;;;5050460;28;20824;-52
2021/09/11 10:46:01;;;;;;;9.57;8.87;;;27.20;84.40;;;;;;5057625;28;20757;-55
2021/09/11 10:48:42;;;;;;;10.13;9.50;;;27.40;84.70;;;;;;5057757;28;20514;-51
2021/09/11 10:51:12;;;;;;;10.13;9.33;;;27.60;85.20;;;;;;5058242;28;20453;-53
2021/09/11 10:53:54;;;;;;;11.53;10.83;;;27.80;83.80;;;;;;5058751;28;20452;-52
2021/09/11 10:56:33;;;;;;;9.80;9.20;;;28.00;84.00;;;;;;5051228;28;20475;-54
2021/09/11 10:59:18;;;;;;;9.70;9.10;;;28.20;84.50;;;;;;5058422;28;20570;-57
2021/09/11 11:01:57;;;;;;;12.60;11.60;;;28.40;84.00;;;;;;5053343;28;20667;-54
2021/09/11 11:04:26;;;;;;;9.70;9.10;;;28.50;82.90;;;;;;5055233;28;20403;-53
2021/09/11 11:06:56;;;;;;;10.60;9.90;;;28.70;83.20;;;;;;5050114;28;20446;-56
2021/09/11 11:09:23;;;;;;;12.33;11.43;;;29.00;81.60;;;;;;5046581;28;20472;-52
2021/09/11 11:11:53;;;;;;;10.43;9.70;;;29.10;81.50;;;;;;5039441;28;20493;-52
2021/09/11 11:14:20;;;;;;;10.43;9.83;;;29.10;82.60;;;;;;5050973;28;20795;-55
2021/09/11 11:16:53;;;;;;;11.07;10.27;;;28.90;83.20;;;;;;5057387;28;20483;-51
2021/09/11 11:19:27;;;;;;;10.00;9.50;;;28.80;83.20;;;;;;5051108;28;20583;-56
2021/09/11 11:22:04;;;;;;;10.60;10.00;;;28.70;83.30;;;;;;5058454;28;20512;-56
2021/09/11 11:24:35;;;;;;;10.97;10.37;;;28.80;83.30;;;;;;5051590;28;20459;-49
2021/09/11 11:27:07;;;;;;;11.03;10.33;;;28.80;83.20;;;;;;5055004;28;20441;-56
2021/09/11 11:29:35;;;;;;;10.57;9.90;;;28.70;83.40;;;;;;5058220;28;20651;-55
2021/09/11 11:32:04;;;;;;;10.90;10.23;;;28.60;84.00;;;;;;5057404;28;20524;-47
2021/09/11 11:34:32;;;;;;;9.60;9.10;;;28.70;84.40;;;;;;5052579;28;20452;-55
2021/09/11 11:37:05;;;;;;;11.13;10.37;;;28.70;84.90;;;;;;5057140;28;20436;-54
2021/09/11 11:39:41;;;;;;;12.20;11.40;;;28.80;85.10;;;;;;5053088;28;20433;-54
2021/09/11 11:42:19;;;;;;;10.70;10.17;;;28.80;84.70;;;;;;5050615;28;20449;-53
2021/09/11 11:44:51;;;;;;;11.43;10.73;;;28.60;86.00;;;;;;5048358;28;20742;-53
2021/09/11 11:47:33;;;;;;;9.77;9.27;;;28.50;85.40;;;;;;5057465;28;20474;-55
2021/09/11 11:50:05;;;;;;;10.03;9.43;;;28.50;85.40;;;;;;5049250;28;20491;-55
2021/09/11 11:52:34;;;;;;;11.23;10.50;;;28.50;85.00;;;;;;5055691;28;20433;-50
2021/09/11 11:55:09;;;;;;;10.80;10.10;;;28.30;85.50;;;;;;5047818;28;20426;-53
2021/09/11 11:57:37;;;;;;;10.93;10.13;;;28.60;86.20;;;;;;5039546;28;20472;-48
2021/09/11 12:00:06;;;;;;;11.70;10.67;;;28.90;85.20;;;;;;5061111;28;20793;-55
2021/09/11 12:02:40;;;;;;;10.87;10.07;;;29.00;85.00;;;;;;5061264;28;20433;-54
2021/09/11 12:05:24;;;;;;;11.53;10.70;;;29.00;86.20;;;;;;5061260;28;20435;-50
2021/09/11 12:08:03;;;;;;;10.23;9.53;;;29.00;86.00;;;;;;5057551;28;20504;-53
2021/09/11 12:10:32;;;;;;;9.60;9.00;;;29.30;87.40;;;;;;5054417;28;20506;-54
2021/09/11 12:13:08;;;;;;;10.20;9.50;;;29.40;86.30;;;;;;5061182;28;20467;-55
2021/09/11 12:15:37;;;;;;;10.70;10.00;;;29.60;85.30;;;;;;5043736;28;20483;-52
2021/09/11 12:18:17;;;;;;;10.43;9.83;;;29.80;85.10;;;;;;5059029;28;20468;-53
2021/09/11 12:20:47;;;;;;;9.93;9.33;;;29.60;84.90;;;;;;5060414;28;20517;-53
2021/09/11 12:23:28;;;;;;;11.47;10.67;;;29.50;84.90;;;;;;5061882;28;20494;-52
2021/09/11 12:26:05;;;;;;;9.43;8.80;;;29.40;85.90;;;;;;5063065;28;20436;-52
2021/09/11 12:28:38;;;;;;;8.83;8.33;;;29.40;85.60;;;;;;5060727;28;20463;-56
2021/09/11 12:31:20;;;;;;;10.43;9.83;;;29.40;86.10;;;;;;5060731;28;20514;-52
2021/09/11 12:33:50;;;;;;;9.30;8.80;;;29.50;85.90;;;;;;5060383;28;20515;-55
2021/09/11 12:36:20;;;;;;;10.00;9.43;;;29.30;86.30;;;;;;5059460;28;20433;-56
2021/09/11 12:38:49;;;;;;;10.00;9.40;;;29.20;86.00;;;;;;5060384;28;20996;-53
2021/09/11 12:41:17;;;;;;;10.47;9.77;;;29.20;86.40;;;;;;5060750;28;20795;-55
2021/09/11 12:43:44;;;;;;;10.30;9.70;;;29.30;86.40;;;;;;5060239;28;20700;-52
2021/09/11 12:46:14;;;;;;;8.30;7.90;;;29.40;85.70;;;;;;5059938;28;20475;-54
2021/09/11 12:48:41;;;;;;;9.33;8.83;;;29.50;85.60;;;;;;5054541;28;20589;-56
2021/09/11 12:51:09;;;;;;;9.50;9.00;;;29.90;85.40;;;;;;5057640;28;20510;-53